Time;durP1;ratioP1;P1;durP2;ratioP2;P2;SDS_P1;SDS_P2;PMS_P1;PMS_P2;Temp;Humidity;BMP_temperature;BMP_pressure;BME280_temperature;BME280_humidity;BME280_pressure;Samples;Min_cycle;Max_cycle;Signal;HPM_P1;HPM_P2
2021/07/12 00:00:13;;;;;;;21.77;19.35;;;18.50;99.90;;;;;;5054827;28;20043;-82
2021/07/12 00:02:39;;;;;;;26.65;23.25;;;18.50;99.90;;;;;;5039399;28;20033;-81
2021/07/12 00:05:07;;;;;;;24.05;21.45;;;18.40;99.90;;;;;;5033953;28;20047;-81
2021/07/12 00:07:33;;;;;;;29.48;22.42;;;18.40;99.90;;;;;;5035931;28;20041;-81
2021/07/12 00:10:00;;;;;;;23.70;21.08;;;18.40;99.90;;;;;;5034745;28;20101;-81
2021/07/12 00:12:26;;;;;;;22.27;19.90;;;18.40;99.90;;;;;;5029134;28;20043;-81
2021/07/12 00:14:52;;;;;;;30.00;22.27;;;18.40;99.90;;;;;;5043637;28;20493;-81
2021/07/12 00:17:19;;;;;;;22.88;20.58;;;18.30;99.90;;;;;;5015158;28;20094;-82
2021/07/12 00:19:45;;;;;;;26.92;21.05;;;18.40;99.90;;;;;;5040340;28;20047;-82
2021/07/12 00:22:11;;;;;;;24.70;19.95;;;18.30;99.90;;;;;;5023730;28;20032;-81
2021/07/12 00:24:37;;;;;;;28.02;21.75;;;18.40;99.90;;;;;;5017631;28;20037;-81
2021/07/12 00:27:03;;;;;;;29.75;22.60;;;18.30;99.90;;;;;;5021046;28;20054;-81
2021/07/12 00:29:29;;;;;;;32.90;23.58;;;18.30;99.90;;;;;;5034965;28;20045;-81
2021/07/12 00:31:54;;;;;;;22.63;19.27;;;18.40;99.90;;;;;;5033285;28;20098;-81
2021/07/12 00:34:20;;;;;;;22.25;19.83;;;18.40;99.90;;;;;;5025437;28;20043;-80
2021/07/12 00:36:46;;;;;;;24.73;21.00;;;18.40;99.90;;;;;;5044700;28;20059;-81
2021/07/12 00:39:12;;;;;;;26.13;21.70;;;18.40;99.90;;;;;;5022983;28;20036;-81
2021/07/12 00:41:38;;;;;;;27.98;22.48;;;18.30;99.90;;;;;;5060326;28;20032;-80
2021/07/12 00:44:05;;;;;;;24.65;22.05;;;18.30;99.90;;;;;;5041172;28;20086;-80
2021/07/12 00:46:31;;;;;;;24.95;21.45;;;18.30;99.90;;;;;;5033764;28;20041;-82
2021/07/12 00:48:57;;;;;;;26.55;23.63;;;18.30;99.90;;;;;;5020570;28;20029;-81
2021/07/12 00:51:23;;;;;;;28.67;23.05;;;18.20;99.90;;;;;;5038878;28;20036;-81
2021/07/12 00:53:50;;;;;;;24.77;22.17;;;18.20;99.90;;;;;;5029003;28;20120;-81
2021/07/12 00:56:16;;;;;;;24.00;20.45;;;18.20;99.90;;;;;;5041870;28;20044;-80
2021/07/12 00:58:42;;;;;;;26.45;21.95;;;18.10;99.90;;;;;;5028524;28;20040;-81
2021/07/12 01:01:08;;;;;;;28.33;24.67;;;18.10;99.90;;;;;;5037339;28;20033;-81
2021/07/12 01:03:35;;;;;;;27.25;22.98;;;18.10;99.90;;;;;;5037253;28;20041;-81
2021/07/12 01:06:05;;;;;;;31.15;25.33;;;18.10;99.90;;;;;;5040983;28;20640;-82
2021/07/12 01:08:33;;;;;;;33.80;25.73;;;18.10;99.90;;;;;;5039534;28;20113;-81
2021/07/12 01:11:14;;;;;;;31.50;25.60;;;18.10;99.90;;;;;;5039067;28;20120;-81
2021/07/12 01:13:49;;;;;;;36.10;27.33;;;18.10;99.90;;;;;;5044481;28;20044;-81
2021/07/12 01:16:44;;;;;;;30.90;25.60;;;18.10;99.90;;;;;;5053451;28;20032;-81
2021/07/12 01:19:28;;;;;;;28.33;24.83;;;18.10;99.90;;;;;;5046697;28;20037;-81
2021/07/12 01:22:25;;;;;;;35.67;26.92;;;18.10;99.90;;;;;;5055329;28;20091;-81
2021/07/12 01:25:27;;;;;;;30.42;25.48;;;18.10;99.90;;;;;;5037924;28;20359;-81
2021/07/12 01:28:31;;;;;;;24.85;22.15;;;18.10;99.90;;;;;;5054737;28;20041;-81
2021/07/12 01:31:45;;;;;;;25.23;21.95;;;18.10;99.90;;;;;;5043893;28;20074;-81
2021/07/12 01:34:30;;;;;;;27.90;22.95;;;18.10;99.90;;;;;;5042089;28;20392;-81
2021/07/12 01:37:02;;;;;;;28.98;23.02;;;18.10;99.90;;;;;;5042969;28;20489;-81
2021/07/12 01:39:47;;;;;;;32.17;23.98;;;18.10;99.90;;;;;;5040888;28;20025;-80
2021/07/12 01:42:26;;;;;;;31.52;25.17;;;18.20;99.90;;;;;;5058517;28;20032;-81
2021/07/12 01:45:07;;;;;;;31.45;25.55;;;18.10;99.90;;;;;;5051801;28;20040;-81
2021/07/12 01:47:40;;;;;;;24.15;21.60;;;18.10;99.90;;;;;;5056223;28;20051;-81
2021/07/12 01:50:25;;;;;;;29.60;24.05;;;18.10;99.90;;;;;;5043963;28;20457;-81
2021/07/12 01:53:03;;;;;;;22.98;20.38;;;18.10;99.90;;;;;;5041062;28;20556;-81
2021/07/12 01:55:34;;;;;;;35.03;26.10;;;18.10;99.90;;;;;;5055243;28;20040;-81
2021/07/12 01:58:07;;;;;;;29.05;23.98;;;18.00;99.90;;;;;;5057431;28;20299;-81
2021/07/12 02:00:34;;;;;;;28.23;23.63;;;18.10;99.90;;;;;;5043756;28;20078;-82
2021/07/12 02:03:01;;;;;;;29.52;25.67;;;18.00;99.90;;;;;;5024003;28;20045;-82
2021/07/12 02:05:32;;;;;;;32.92;25.63;;;18.00;99.90;;;;;;5039856;28;20047;-82
2021/07/12 02:08:00;;;;;;;26.85;23.00;;;18.00;99.90;;;;;;5033476;28;20064;-81
2021/07/12 02:10:30;;;;;;;29.75;24.02;;;18.00;99.90;;;;;;5038207;28;20051;-82
2021/07/12 02:12:57;;;;;;;27.33;23.55;;;17.90;99.90;;;;;;5037813;28;20032;-82
2021/07/12 02:15:25;;;;;;;27.15;23.70;;;18.00;99.90;;;;;;5051747;28;20050;-81
2021/07/12 02:17:51;;;;;;;29.25;23.70;;;17.90;99.90;;;;;;5037809;28;20041;-82
2021/07/12 02:20:19;;;;;;;29.30;24.98;;;17.90;99.90;;;;;;5026388;28;20489;-81
2021/07/12 02:22:47;;;;;;;29.23;25.15;;;17.90;99.90;;;;;;5035363;28;20086;-81
2021/07/12 02:25:15;;;;;;;33.65;27.10;;;18.00;99.90;;;;;;5023258;28;20056;-81
2021/07/12 02:27:42;;;;;;;30.30;25.20;;;18.00;99.90;;;;;;5040112;28;20512;-81
2021/07/12 02:30:09;;;;;;;30.23;24.10;;;17.90;99.90;;;;;;5024680;28;20059;-81
2021/07/12 02:32:37;;;;;;;34.67;27.17;;;17.90;99.90;;;;;;5032190;28;20029;-82
2021/07/12 02:35:06;;;;;;;27.17;24.25;;;17.90;99.90;;;;;;5054468;28;20389;-81
2021/07/12 02:37:39;;;;;;;29.52;25.35;;;17.90;99.90;;;;;;5018726;28;20333;-81
2021/07/12 02:40:07;;;;;;;31.13;24.88;;;17.90;99.90;;;;;;5054141;28;20420;-82
2021/07/12 02:42:34;;;;;;;30.45;23.52;;;17.90;99.90;;;;;;5038465;28;20033;-81
2021/07/12 02:45:01;;;;;;;35.83;28.75;;;17.90;99.90;;;;;;5034857;28;20512;-81
2021/07/12 02:47:27;;;;;;;32.08;24.73;;;17.90;99.90;;;;;;5041160;28;20066;-81
2021/07/12 02:49:53;;;;;;;37.53;27.25;;;18.00;99.90;;;;;;5005044;28;20405;-81
2021/07/12 02:52:23;;;;;;;46.38;30.20;;;17.90;99.90;;;;;;5004146;28;20028;-82
2021/07/12 02:54:54;;;;;;;47.17;32.85;;;17.90;99.90;;;;;;5052632;28;20358;-81
2021/07/12 02:57:20;;;;;;;46.65;32.30;;;17.90;99.90;;;;;;5054679;28;20134;-81
2021/07/12 02:59:46;;;;;;;37.50;28.80;;;17.90;99.90;;;;;;5023841;28;20070;-81
2021/07/12 03:02:11;;;;;;;35.60;28.42;;;18.00;99.90;;;;;;5020001;28;20481;-82
2021/07/12 03:04:37;;;;;;;37.78;28.90;;;17.90;99.90;;;;;;5035528;28;20028;-82
2021/07/12 03:07:24;;;;;;;33.42;26.50;;;18.00;99.90;;;;;;4995333;28;20123;-81
2021/07/12 03:09:53;;;;;;;36.15;28.92;;;17.90;99.90;;;;;;5032431;28;20037;-82
2021/07/12 03:12:43;;;;;;;37.83;28.33;;;18.00;99.90;;;;;;5021418;28;20033;-82
2021/07/12 03:15:11;;;;;;;45.53;31.35;;;18.00;99.90;;;;;;5040341;28;20033;-81
2021/07/12 03:17:56;;;;;;;43.25;31.15;;;17.90;99.90;;;;;;5057938;28;20128;-82
2021/07/12 03:20:25;;;;;;;37.80;28.75;;;17.90;99.90;;;;;;5037617;28;20055;-82
2021/07/12 03:22:53;;;;;;;32.53;25.80;;;17.90;99.90;;;;;;5034982;28;20044;-81
2021/07/12 03:25:26;;;;;;;36.13;27.10;;;17.90;99.90;;;;;;5052302;28;20529;-82
2021/07/12 03:27:57;;;;;;;31.35;26.83;;;17.90;99.90;;;;;;5042242;28;20037;-82
2021/07/12 03:30:25;;;;;;;36.78;27.55;;;17.90;99.90;;;;;;5025865;28;20043;-82
2021/07/12 03:32:52;;;;;;;39.13;30.23;;;17.90;99.90;;;;;;5027954;28;20033;-81
2021/07/12 03:35:20;;;;;;;33.22;26.60;;;17.90;99.90;;;;;;5040393;28;20032;-81
2021/07/12 03:37:46;;;;;;;38.45;28.50;;;17.90;99.90;;;;;;5034845;28;20064;-82
2021/07/12 03:40:13;;;;;;;38.30;29.35;;;17.90;99.90;;;;;;5027608;28;20043;-82
2021/07/12 03:42:39;;;;;;;38.53;29.48;;;17.90;99.90;;;;;;5010680;28;20119;-82
2021/07/12 03:45:06;;;;;;;38.83;27.27;;;17.90;99.90;;;;;;5027256;28;20094;-81
2021/07/12 03:47:35;;;;;;;34.67;27.63;;;17.90;99.90;;;;;;5063730;28;20040;-81
2021/07/12 03:50:12;;;;;;;34.58;26.35;;;17.90;99.90;;;;;;5062730;28;20036;-82
2021/07/12 03:52:45;;;;;;;28.58;22.73;;;17.90;99.90;;;;;;5024277;28;20055;-82
2021/07/12 03:55:13;;;;;;;33.03;26.67;;;18.00;99.90;;;;;;5055243;28;20029;-82
2021/07/12 03:57:40;;;;;;;33.45;26.35;;;17.90;99.90;;;;;;5040390;28;20037;-81
2021/07/12 04:00:09;;;;;;;31.83;26.15;;;18.00;99.90;;;;;;5042376;28;20088;-82
2021/07/12 04:02:36;;;;;;;32.17;26.15;;;18.00;99.90;;;;;;5059215;28;20441;-82
2021/07/12 04:05:03;;;;;;;30.73;24.25;;;18.00;99.90;;;;;;5016995;28;20481;-82
2021/07/12 04:07:28;;;;;;;32.58;25.15;;;18.00;99.90;;;;;;5025295;28;20082;-82
2021/07/12 04:09:54;;;;;;;38.33;28.55;;;18.00;99.90;;;;;;5025847;28;20044;-82
2021/07/12 04:12:24;;;;;;;47.13;31.10;;;18.00;99.90;;;;;;5040702;28;20326;-82
2021/07/12 04:14:54;;;;;;;36.72;28.35;;;18.00;99.90;;;;;;5041763;28;20125;-81
2021/07/12 04:17:20;;;;;;;39.22;31.20;;;18.10;99.90;;;;;;5036748;28;20114;-81
2021/07/12 04:19:47;;;;;;;33.40;27.40;;;18.10;99.90;;;;;;5022118;28;20119;-82
2021/07/12 04:22:13;;;;;;;39.33;30.58;;;18.10;99.90;;;;;;5044574;28;20053;-81
2021/07/12 04:24:39;;;;;;;39.05;30.70;;;18.10;99.90;;;;;;5027870;28;20036;-81
2021/07/12 04:27:06;;;;;;;41.97;29.88;;;18.10;99.90;;;;;;5026492;28;20115;-82
2021/07/12 04:29:32;;;;;;;32.63;27.15;;;18.10;99.90;;;;;;5027585;28;20097;-82
2021/07/12 04:32:00;;;;;;;49.15;32.30;;;18.10;99.90;;;;;;5041510;28;20033;-81
2021/07/12 04:34:27;;;;;;;44.55;31.27;;;18.10;99.90;;;;;;5014431;28;20036;-82
2021/07/12 04:36:54;;;;;;;49.88;34.55;;;18.10;99.90;;;;;;5039363;28;20060;-82
2021/07/12 04:39:20;;;;;;;68.13;38.17;;;18.10;99.90;;;;;;5023124;28;20404;-81
2021/07/12 04:41:47;;;;;;;71.05;40.50;;;18.10;99.90;;;;;;5011823;28;20032;-81
2021/07/12 04:44:12;;;;;;;51.63;34.95;;;18.10;99.90;;;;;;5041779;28;20040;-82
2021/07/12 04:46:39;;;;;;;40.20;30.98;;;18.10;99.90;;;;;;5014322;28;20101;-81
2021/07/12 04:49:06;;;;;;;46.08;33.70;;;18.10;99.90;;;;;;5013210;28;20087;-82
2021/07/12 04:51:32;;;;;;;75.60;42.53;;;18.10;99.90;;;;;;5013617;28;20512;-81
2021/07/12 04:53:59;;;;;;;87.82;42.55;;;18.10;99.90;;;;;;5030136;28;20037;-82
2021/07/12 04:56:25;;;;;;;67.22;38.88;;;18.10;99.90;;;;;;5060039;28;20445;-81
2021/07/12 04:58:52;;;;;;;61.72;38.80;;;18.10;99.90;;;;;;5028624;28;20032;-81
2021/07/12 05:01:18;;;;;;;46.45;34.42;;;18.10;99.90;;;;;;5029626;28;20306;-82
2021/07/12 05:03:44;;;;;;;47.90;35.15;;;18.10;99.90;;;;;;5044883;28;20376;-81
2021/07/12 05:06:11;;;;;;;71.20;41.30;;;18.10;99.90;;;;;;5021383;28;20033;-81
2021/07/12 05:08:37;;;;;;;90.03;45.42;;;18.10;99.90;;;;;;5041213;28;20119;-81
2021/07/12 05:11:04;;;;;;;102.75;49.50;;;18.10;99.90;;;;;;5039954;28;20572;-81
2021/07/12 05:13:32;;;;;;;150.77;47.40;;;18.20;99.90;;;;;;5041987;28;20131;-81
2021/07/12 05:15:58;;;;;;;85.22;46.10;;;18.10;99.90;;;;;;5022674;28;20536;-81
2021/07/12 05:18:24;;;;;;;75.18;42.72;;;18.10;99.90;;;;;;4995442;28;20041;-81
2021/07/12 05:20:53;;;;;;;74.00;41.85;;;18.10;99.90;;;;;;5032618;28;20052;-82
2021/07/12 05:23:19;;;;;;;67.25;40.30;;;18.20;99.90;;;;;;5012767;28;20036;-80
2021/07/12 05:25:45;;;;;;;60.28;40.47;;;18.20;99.90;;;;;;5043435;28;20131;-81
2021/07/12 05:28:11;;;;;;;82.90;42.15;;;18.10;99.90;;;;;;5032126;28;20040;-82
2021/07/12 05:30:37;;;;;;;75.03;42.80;;;18.10;99.90;;;;;;5011337;28;20040;-81
2021/07/12 05:33:03;;;;;;;93.05;44.85;;;18.20;99.90;;;;;;5013941;28;20043;-81
2021/07/12 05:35:30;;;;;;;54.03;38.17;;;18.20;99.90;;;;;;5022179;28;20036;-81
2021/07/12 05:37:56;;;;;;;55.72;38.75;;;18.20;99.90;;;;;;5022973;28;20174;-81
2021/07/12 05:40:21;;;;;;;63.83;40.20;;;18.20;99.90;;;;;;5028821;28;20036;-82
2021/07/12 05:42:47;;;;;;;60.47;38.22;;;18.20;99.90;;;;;;5024733;28;20290;-81
2021/07/12 05:45:13;;;;;;;116.40;50.10;;;18.20;99.90;;;;;;5025845;28;20059;-82
2021/07/12 05:47:39;;;;;;;114.85;48.55;;;18.20;99.90;;;;;;5026516;28;20037;-81
2021/07/12 05:50:07;;;;;;;79.32;45.13;;;18.20;99.90;;;;;;5009902;28;20461;-81
2021/07/12 05:52:35;;;;;;;89.90;46.58;;;18.20;99.90;;;;;;5041844;28;20060;-81
2021/07/12 05:55:01;;;;;;;73.07;42.63;;;18.30;99.90;;;;;;5018824;28;20071;-81
2021/07/12 05:57:27;;;;;;;138.27;52.33;;;18.20;99.90;;;;;;5021525;28;20059;-81
2021/07/12 05:59:53;;;;;;;89.45;46.80;;;18.20;99.90;;;;;;5012380;28;20040;-81
2021/07/12 06:02:19;;;;;;;62.83;39.95;;;18.30;99.90;;;;;;5036127;28;20051;-81
2021/07/12 06:04:48;;;;;;;60.72;39.75;;;18.40;99.90;;;;;;5027209;28;20039;-81
2021/07/12 06:07:14;;;;;;;73.97;43.58;;;18.40;99.90;;;;;;5020159;28;20032;-81
2021/07/12 06:09:39;;;;;;;72.93;43.80;;;18.40;99.90;;;;;;5019850;28;20048;-81
2021/07/12 06:12:06;;;;;;;96.68;49.45;;;18.40;99.90;;;;;;5024130;28;20468;-81
2021/07/12 06:14:32;;;;;;;79.55;45.95;;;18.50;99.90;;;;;;5028594;28;20057;-81
2021/07/12 06:16:58;;;;;;;89.13;49.92;;;18.50;99.90;;;;;;5031829;28;20029;-81
2021/07/12 06:19:24;;;;;;;63.47;42.63;;;18.50;99.90;;;;;;5051733;28;20096;-81
2021/07/12 06:21:50;;;;;;;68.63;42.95;;;18.50;99.90;;;;;;5034771;28;20112;-81
2021/07/12 06:24:16;;;;;;;67.95;43.28;;;18.60;99.90;;;;;;5042964;28;20028;-81
2021/07/12 06:26:42;;;;;;;68.57;42.78;;;18.60;99.90;;;;;;5066668;28;20063;-82
2021/07/12 06:29:09;;;;;;;66.95;45.03;;;18.70;99.90;;;;;;5024755;28;20044;-81
2021/07/12 06:31:36;;;;;;;69.93;44.58;;;18.70;99.90;;;;;;5031834;28;20486;-82
2021/07/12 06:34:02;;;;;;;68.63;44.17;;;18.70;99.90;;;;;;5030558;28;20059;-81
2021/07/12 06:36:28;;;;;;;65.70;42.55;;;18.70;99.90;;;;;;5038540;28;20067;-81
2021/07/12 06:38:53;;;;;;;65.70;42.22;;;18.80;99.90;;;;;;5031156;28;20028;-81
2021/07/12 06:41:19;;;;;;;63.85;41.65;;;18.80;99.90;;;;;;5042523;28;20033;-81
2021/07/12 06:43:45;;;;;;;57.90;40.75;;;18.80;99.90;;;;;;5001099;28;20131;-81
2021/07/12 06:46:11;;;;;;;47.58;35.13;;;18.90;99.90;;;;;;5048304;28;20036;-82
2021/07/12 06:48:37;;;;;;;62.50;43.53;;;18.90;99.90;;;;;;5013790;28;20045;-81
2021/07/12 06:51:03;;;;;;;59.92;40.38;;;18.90;99.90;;;;;;5056857;28;20036;-81
2021/07/12 06:53:28;;;;;;;53.15;38.60;;;19.00;99.90;;;;;;5047720;28;20028;-82
2021/07/12 06:55:54;;;;;;;56.10;39.05;;;19.00;99.90;;;;;;5022531;28;20025;-81
2021/07/12 06:58:25;;;;;;;52.58;37.88;;;19.00;99.90;;;;;;5042195;28;20257;-81
2021/07/12 07:00:51;;;;;;;49.10;37.42;;;19.10;99.90;;;;;;5032306;28;20039;-82
2021/07/12 07:03:17;;;;;;;50.00;38.72;;;19.10;99.90;;;;;;5017835;28;20602;-82
2021/07/12 07:05:43;;;;;;;46.55;37.00;;;19.10;99.90;;;;;;5030223;28;20036;-84
2021/07/12 07:08:09;;;;;;;50.17;37.95;;;19.20;99.90;;;;;;5031692;28;20195;-82
2021/07/12 07:10:35;;;;;;;44.55;34.45;;;19.20;99.90;;;;;;5045471;28;20496;-82
2021/07/12 07:13:01;;;;;;;47.70;37.75;;;19.30;99.90;;;;;;5012507;28;20047;-82
2021/07/12 07:15:28;;;;;;;43.63;33.58;;;19.30;99.90;;;;;;5045438;28;20043;-81
2021/07/12 07:17:55;;;;;;;43.03;34.65;;;19.40;99.90;;;;;;5045624;28;20131;-82
2021/07/12 07:20:21;;;;;;;50.13;37.70;;;19.50;99.90;;;;;;5043976;28;20051;-82
2021/07/12 07:22:47;;;;;;;42.88;35.53;;;19.60;99.90;;;;;;5037680;28;20515;-82
2021/07/12 07:25:13;;;;;;;42.88;33.25;;;19.70;99.90;;;;;;5031380;28;20039;-84
2021/07/12 07:27:40;;;;;;;44.38;32.92;;;19.80;99.90;;;;;;5050930;28;20028;-82
2021/07/12 07:30:07;;;;;;;38.40;32.08;;;19.90;99.90;;;;;;5041769;28;20105;-84
2021/07/12 07:32:33;;;;;;;38.47;32.03;;;20.10;99.90;;;;;;5045920;28;20066;-82
2021/07/12 07:34:59;;;;;;;38.35;32.60;;;20.20;99.90;;;;;;5026258;28;20035;-82
2021/07/12 07:37:26;;;;;;;36.13;30.33;;;20.20;99.90;;;;;;5012889;28;20041;-82
2021/07/12 07:39:52;;;;;;;36.25;31.55;;;20.40;99.90;;;;;;5027829;28;20047;-82
2021/07/12 07:42:17;;;;;;;37.75;31.10;;;20.40;99.90;;;;;;5034501;28;20037;-82
2021/07/12 07:44:43;;;;;;;33.92;28.75;;;20.40;99.90;;;;;;5024584;28;20115;-84
2021/07/12 07:47:10;;;;;;;36.60;30.38;;;20.50;99.90;;;;;;5020854;28;20098;-84
2021/07/12 07:49:36;;;;;;;36.83;29.73;;;20.40;99.90;;;;;;5020155;28;20036;-83
2021/07/12 07:52:03;;;;;;;36.08;32.17;;;20.50;99.90;;;;;;5032641;28;20093;-83
2021/07/12 07:54:29;;;;;;;29.75;26.65;;;20.40;99.90;;;;;;5043399;28;20041;-83
2021/07/12 07:56:54;;;;;;;31.17;26.95;;;20.40;99.90;;;;;;5040426;28;20064;-82
2021/07/12 07:59:21;;;;;;;30.40;24.38;;;20.50;99.90;;;;;;5012819;28;20112;-84
2021/07/12 08:01:47;;;;;;;27.23;24.33;;;20.50;99.80;;;;;;5035707;28;20048;-84
2021/07/12 08:04:12;;;;;;;28.00;25.10;;;20.60;99.70;;;;;;5027795;28;20116;-83
2021/07/12 08:06:38;;;;;;;29.50;25.25;;;20.60;99.70;;;;;;5044523;28;20040;-86
2021/07/12 08:09:04;;;;;;;27.92;25.13;;;20.70;99.70;;;;;;5021412;28;20420;-84
2021/07/12 08:11:31;;;;;;;27.92;24.92;;;20.70;99.80;;;;;;5007522;28;20051;-84
2021/07/12 08:13:58;;;;;;;28.00;24.92;;;20.70;99.70;;;;;;5027416;28;20221;-84
2021/07/12 08:16:25;;;;;;;43.70;28.10;;;20.70;99.90;;;;;;5028399;28;20044;-86
2021/07/12 08:18:50;;;;;;;28.95;25.85;;;20.70;99.70;;;;;;5010301;28;20394;-83
2021/07/12 08:21:16;;;;;;;26.73;23.85;;;20.60;99.50;;;;;;5017564;28;20035;-83
2021/07/12 08:23:42;;;;;;;26.85;24.05;;;20.70;99.60;;;;;;5045508;28;22090;-83
2021/07/12 08:26:12;;;;;;;26.45;23.52;;;20.70;99.50;;;;;;5044187;28;20040;-83
2021/07/12 08:28:39;;;;;;;28.92;24.90;;;20.70;99.30;;;;;;5044432;28;20432;-83
2021/07/12 08:31:06;;;;;;;25.63;22.45;;;20.70;99.30;;;;;;5045953;28;20063;-86
2021/07/12 08:33:32;;;;;;;26.60;22.60;;;20.70;99.30;;;;;;5050430;28;20029;-83
2021/07/12 08:35:58;;;;;;;26.42;23.58;;;20.80;99.40;;;;;;5009065;28;20047;-83
2021/07/12 08:38:24;;;;;;;27.15;24.25;;;20.80;99.10;;;;;;5026688;28;20085;-83
2021/07/12 08:40:53;;;;;;;31.00;27.67;;;20.80;98.90;;;;;;5041391;28;20052;-84
2021/07/12 08:43:19;;;;;;;29.25;25.27;;;20.80;99.10;;;;;;5043519;28;20434;-85
2021/07/12 08:45:45;;;;;;;27.60;24.77;;;20.80;99.30;;;;;;5027962;28;20029;-83
2021/07/12 08:48:11;;;;;;;31.02;25.63;;;20.80;99.10;;;;;;4994186;28;20072;-84
2021/07/12 08:50:37;;;;;;;29.80;26.55;;;20.90;98.90;;;;;;5027825;28;20025;-86
2021/07/12 08:53:03;;;;;;;28.15;25.05;;;20.90;98.90;;;;;;5013160;28;20761;-82
2021/07/12 08:55:28;;;;;;;28.95;25.13;;;20.90;98.80;;;;;;5030953;28;20039;-84
2021/07/12 08:58:02;;;;;;;29.75;25.40;;;20.90;98.70;;;;;;5045285;28;20033;-84
2021/07/12 09:00:45;;;;;;;26.80;23.95;;;21.00;98.50;;;;;;5039587;28;20116;-86
2021/07/12 09:03:18;;;;;;;28.30;25.25;;;21.00;98.30;;;;;;5047280;28;20128;-83
2021/07/12 09:06:12;;;;;;;28.42;25.40;;;21.00;98.40;;;;;;5042288;28;20046;-83
2021/07/12 09:08:52;;;;;;;25.67;22.85;;;21.10;98.20;;;;;;5055366;28;20045;-85
2021/07/12 09:11:27;;;;;;;26.15;23.27;;;21.20;97.90;;;;;;5043286;28;20025;-82
2021/07/12 09:13:55;;;;;;;23.77;21.25;;;21.30;97.70;;;;;;5034717;28;20040;-83
2021/07/12 09:16:35;;;;;;;27.35;22.38;;;21.20;97.40;;;;;;5047343;28;20059;-85
2021/07/12 09:19:05;;;;;;;22.25;19.88;;;21.30;97.30;;;;;;5070457;28;20048;-83
2021/07/12 09:21:40;;;;;;;21.17;18.88;;;21.30;97.00;;;;;;5056469;28;20058;-82
2021/07/12 09:24:25;;;;;;;25.88;23.13;;;21.30;96.70;;;;;;5052346;28;20489;-83
2021/07/12 09:26:57;;;;;;;27.40;24.52;;;21.30;96.90;;;;;;5045855;28;20040;-83
2021/07/12 09:29:26;;;;;;;27.33;24.42;;;21.40;97.20;;;;;;5046310;28;20052;-84
2021/07/12 09:31:53;;;;;;;26.10;23.30;;;21.50;97.90;;;;;;5049421;28;20043;-83
2021/07/12 09:34:20;;;;;;;24.85;22.25;;;21.60;97.80;;;;;;5013762;28;20029;-83
2021/07/12 09:36:47;;;;;;;25.38;22.13;;;21.60;97.80;;;;;;5034293;28;20112;-85
2021/07/12 09:39:33;;;;;;;21.73;19.42;;;21.70;97.80;;;;;;5046785;28;20040;-84
2021/07/12 09:42:05;;;;;;;20.92;18.80;;;21.80;97.50;;;;;;5010167;28;20044;-83
2021/07/12 09:44:32;;;;;;;20.33;18.23;;;21.70;97.50;;;;;;5059455;28;20033;-85
2021/07/12 09:47:04;;;;;;;19.10;17.10;;;21.70;97.30;;;;;;5040298;28;20140;-85
2021/07/12 09:49:30;;;;;;;20.48;18.20;;;21.70;97.20;;;;;;5029024;28;20460;-83
2021/07/12 09:51:58;;;;;;;19.13;16.67;;;21.70;97.20;;;;;;5040955;28;20028;-83
2021/07/12 09:54:29;;;;;;;16.60;14.90;;;21.70;96.40;;;;;;5027902;28;20058;-85
2021/07/12 09:57:00;;;;;;;18.13;15.57;;;21.70;96.00;;;;;;5047578;28;20029;-86
2021/07/12 09:59:26;;;;;;;17.05;15.35;;;21.70;96.00;;;;;;5032800;28;20043;-88
2021/07/12 10:01:56;;;;;;;13.02;11.63;;;21.80;96.10;;;;;;5026726;28;20119;-87
2021/07/12 10:04:23;;;;;;;13.32;11.85;;;21.80;94.80;;;;;;5057688;28;20033;-87
2021/07/12 10:06:50;;;;;;;13.82;12.43;;;21.90;94.60;;;;;;5045426;28;20047;-84
2021/07/12 10:09:24;;;;;;;14.30;12.98;;;22.00;94.60;;;;;;5027211;28;20601;-83
2021/07/12 10:11:55;;;;;;;15.73;14.13;;;22.00;93.90;;;;;;5031863;28;20044;-85
2021/07/12 10:14:23;;;;;;;15.52;12.77;;;22.10;94.00;;;;;;5034775;28;20064;-85
2021/07/12 10:16:50;;;;;;;15.40;13.80;;;22.10;94.40;;;;;;5066668;28;20527;-84
2021/07/12 10:19:17;;;;;;;15.40;13.90;;;22.20;93.90;;;;;;5015049;28;20075;-88
2021/07/12 10:21:50;;;;;;;16.52;14.82;;;22.20;93.50;;;;;;5028180;28;20553;-85
2021/07/12 10:24:20;;;;;;;17.33;15.45;;;22.20;94.20;;;;;;5060138;28;20029;-83
2021/07/12 10:26:49;;;;;;;20.00;17.92;;;22.30;94.60;;;;;;5033519;28;20052;-84
2021/07/12 10:29:20;;;;;;;20.60;18.42;;;22.30;94.30;;;;;;5047579;28;20044;-84
2021/07/12 10:31:57;;;;;;;19.70;17.65;;;22.40;94.30;;;;;;5057824;28;20055;-84
2021/07/12 10:34:31;;;;;;;19.40;17.40;;;22.50;94.30;;;;;;5048586;28;20028;-85
2021/07/12 10:37:02;;;;;;;19.55;17.30;;;22.60;94.30;;;;;;5062520;28;20041;-86
2021/07/12 10:40:04;;;;;;;18.60;16.70;;;22.70;93.90;;;;;;5045944;28;20040;-85
2021/07/12 10:42:44;;;;;;;19.80;15.93;;;22.70;92.60;;;;;;5134668;27;20409;-84
2021/07/12 10:45:10;;;;;;;18.60;16.67;;;22.70;93.80;;;;;;5082055;28;20279;-85
2021/07/12 10:47:54;;;;;;;19.80;17.70;;;22.70;93.00;;;;;;5101753;28;20093;-85
2021/07/12 10:50:38;;;;;;;17.42;15.63;;;22.70;93.60;;;;;;5098139;28;20031;-85
2021/07/12 10:53:26;;;;;;;18.38;16.58;;;22.70;92.90;;;;;;5081589;28;20486;-84
2021/07/12 10:55:58;;;;;;;21.17;16.05;;;22.70;93.60;;;;;;5092913;28;20038;-85
2021/07/12 10:58:25;;;;;;;18.25;16.45;;;22.70;93.10;;;;;;5098160;28;20043;-84
2021/07/12 11:00:52;;;;;;;17.13;15.40;;;22.80;93.70;;;;;;5096880;28;20032;-85
2021/07/12 11:03:42;;;;;;;18.77;16.42;;;22.80;92.90;;;;;;5075144;28;20193;-85
2021/07/12 11:06:10;;;;;;;23.80;16.85;;;22.80;92.60;;;;;;5088493;28;20446;-85
2021/07/12 11:08:42;;;;;;;18.10;16.08;;;22.90;93.20;;;;;;5076691;28;20040;-85
2021/07/12 11:11:09;;;;;;;17.30;15.50;;;22.90;92.60;;;;;;5095644;28;20035;-85
2021/07/12 11:13:57;;;;;;;17.40;15.48;;;23.00;92.60;;;;;;5092792;28;20494;-85
2021/07/12 11:16:25;;;;;;;17.27;15.45;;;23.10;92.80;;;;;;5091264;28;20491;-85
2021/07/12 11:18:53;;;;;;;16.38;14.77;;;23.20;92.30;;;;;;5088809;28;20032;-86
2021/07/12 11:21:34;;;;;;;16.75;15.05;;;23.20;91.50;;;;;;5085918;28;20182;-84
2021/07/12 11:24:09;;;;;;;16.30;14.70;;;23.20;91.20;;;;;;5090656;28;20043;-84
2021/07/12 11:26:38;;;;;;;16.92;15.15;;;23.20;91.20;;;;;;5093829;28;20108;-83
2021/07/12 11:29:27;;;;;;;18.77;16.52;;;23.30;90.80;;;;;;5088457;28;20078;-85
2021/07/12 11:32:02;;;;;;;17.23;15.48;;;23.20;90.50;;;;;;5073743;28;20032;-83
2021/07/12 11:34:28;;;;;;;18.40;16.60;;;23.20;90.70;;;;;;5084639;28;20463;-84
2021/07/12 11:36:57;;;;;;;17.83;15.98;;;23.10;90.40;;;;;;5089200;28;20035;-84
2021/07/12 11:39:25;;;;;;;18.35;16.52;;;23.10;90.60;;;;;;5086597;28;20032;-84
2021/07/12 11:41:52;;;;;;;19.10;17.10;;;23.20;91.00;;;;;;5088627;28;20028;-84
2021/07/12 11:44:19;;;;;;;18.65;16.48;;;23.30;90.80;;;;;;5089927;28;20036;-86
2021/07/12 11:46:46;;;;;;;18.77;16.60;;;23.40;90.40;;;;;;5088623;28;20286;-85
2021/07/12 11:49:15;;;;;;;19.90;17.63;;;23.40;90.20;;;;;;5077728;28;20031;-83
2021/07/12 11:51:42;;;;;;;19.48;17.42;;;23.40;90.00;;;;;;5087551;28;20071;-83
2021/07/12 11:54:20;;;;;;;21.73;18.08;;;23.50;89.60;;;;;;5075714;28;20036;-85
2021/07/12 11:57:14;;;;;;;17.70;15.77;;;23.50;89.10;;;;;;5071638;28;20029;-86
2021/07/12 11:59:42;;;;;;;20.52;16.95;;;23.50;90.10;;;;;;5073184;28;20509;-84
2021/07/12 12:02:17;;;;;;;17.63;15.68;;;23.50;90.10;;;;;;5075366;28;20392;-84
2021/07/12 12:04:58;;;;;;;18.05;16.20;;;23.40;88.50;;;;;;5061133;28;20036;-84
2021/07/12 12:07:28;;;;;;;18.50;16.58;;;23.40;89.10;;;;;;5074761;28;20197;-86
2021/07/12 12:09:57;;;;;;;17.65;15.85;;;23.50;88.80;;;;;;5077388;28;20299;-86
2021/07/12 12:12:26;;;;;;;17.05;15.25;;;23.40;89.60;;;;;;5053476;28;20494;-86
2021/07/12 12:15:06;;;;;;;15.77;14.18;;;23.40;89.90;;;;;;5073427;28;20028;-86
2021/07/12 12:17:34;;;;;;;16.90;15.20;;;23.50;90.50;;;;;;5070872;28;20065;-85
2021/07/12 12:20:24;;;;;;;15.20;13.45;;;23.60;90.10;;;;;;5070259;28;20036;-83
2021/07/12 12:23:13;;;;;;;16.77;15.00;;;23.70;88.70;;;;;;5068253;28;20052;-83
2021/07/12 12:26:03;;;;;;;14.65;13.18;;;23.80;88.00;;;;;;5076799;28;20093;-85
2021/07/12 12:28:41;;;;;;;15.52;13.70;;;23.90;89.40;;;;;;5080704;28;20028;-85
2021/07/12 12:31:12;;;;;;;16.02;13.57;;;24.00;90.00;;;;;;5071625;28;20037;-86
2021/07/12 12:34:03;;;;;;;16.33;14.63;;;24.10;90.00;;;;;;5075083;28;20032;-85
2021/07/12 12:36:34;;;;;;;17.30;15.40;;;24.10;89.20;;;;;;5075439;28;20047;-84
2021/07/12 12:39:01;;;;;;;14.40;12.90;;;24.00;88.20;;;;;;5074220;28;20028;-86